createdAt,value
2022-11-24T00:01:48.283Z,24.67
2022-11-24T00:04:17.537Z,23.37
2022-11-24T00:06:46.420Z,24.62
2022-11-24T00:09:15.890Z,27.77
2022-11-24T00:11:44.746Z,25.97
2022-11-24T00:14:14.055Z,25.36
2022-11-24T00:16:43.176Z,23.18
2022-11-24T00:19:17.051Z,24.78
2022-11-24T00:21:48.499Z,21.33
2022-11-24T00:24:17.548Z,25.74
2022-11-24T00:26:47.353Z,26.70
2022-11-24T00:29:16.517Z,29.09
2022-11-24T00:31:45.773Z,29.72
2022-11-24T00:34:16.235Z,29.41
2022-11-24T00:36:46.439Z,31.34
2022-11-24T00:39:16.921Z,31.54
2022-11-24T00:41:46.305Z,30.92
2022-11-24T00:44:16.199Z,31.43
2022-11-24T00:46:45.465Z,27.99
2022-11-24T00:49:15.210Z,27.77
2022-11-24T00:51:44.689Z,27.39
2022-11-24T00:54:13.957Z,28.41
2022-11-24T00:56:43.336Z,27.83
2022-11-24T00:59:12.526Z,27.31
2022-11-24T01:01:43.529Z,25.68
2022-11-24T01:04:13.644Z,27.11
2022-11-24T01:06:43.568Z,27.55
2022-11-24T01:09:13.042Z,28.16
2022-11-24T01:12:01.803Z,24.20
2022-11-24T01:14:32.548Z,23.51
2022-11-24T01:17:04.488Z,26.37
2022-11-24T01:19:33.827Z,29.11
2022-11-24T01:22:03.117Z,29.10
2022-11-24T01:24:32.755Z,30.52
2022-11-24T01:27:01.932Z,27.45
2022-11-24T01:29:31.089Z,28.91
2022-11-24T01:32:00.190Z,31.07
2022-11-24T01:34:29.718Z,32.35
2022-11-24T01:36:58.729Z,26.63
2022-11-24T01:39:28.261Z,27.13
2022-11-24T01:41:57.230Z,23.19
2022-11-24T01:44:29.318Z,26.62
2022-11-24T01:47:03.680Z,28.07
2022-11-24T01:49:46.059Z,29.12
2022-11-24T01:52:28.895Z,29.56
2022-11-24T01:55:02.528Z,30.38
2022-11-24T01:57:57.103Z,31.43
2022-11-24T02:00:26.973Z,31.79
2022-11-24T02:02:56.127Z,31.23
2022-11-24T02:05:38.624Z,32.50
2022-11-24T02:08:15.615Z,26.81
2022-11-24T02:10:46.904Z,22.08
2022-11-24T02:13:16.940Z,24.38
2022-11-24T02:15:45.906Z,30.07
2022-11-24T02:18:15.430Z,29.40
2022-11-24T02:20:44.498Z,27.94
2022-11-24T02:23:20.606Z,29.59
2022-11-24T02:26:14.238Z,29.54
2022-11-24T02:28:43.549Z,28.95
2022-11-24T02:31:12.945Z,27.97
2022-11-24T02:33:42.647Z,27.13
2022-11-24T02:36:11.632Z,29.41
2022-11-24T02:38:41.033Z,27.29
2022-11-24T02:41:15.469Z,29.14
2022-11-24T02:43:50.860Z,29.73
2022-11-24T02:46:20.158Z,26.34
2022-11-24T02:48:49.265Z,29.92
2022-11-24T02:51:18.933Z,29.88
2022-11-24T02:53:47.898Z,28.98
2022-11-24T02:56:17.073Z,30.64
2022-11-24T02:58:45.945Z,32.83
2022-11-24T03:01:15.249Z,29.73
2022-11-24T03:03:44.362Z,30.26
2022-11-24T03:06:13.535Z,29.86
2022-11-24T03:08:42.857Z,29.12
2022-11-24T03:11:12.018Z,31.53
2022-11-24T03:13:41.328Z,31.72
2022-11-24T03:16:11.542Z,30.07
2022-11-24T03:18:40.929Z,33.14
2022-11-24T03:21:10.142Z,31.44
2022-11-24T03:23:39.338Z,31.04
2022-11-24T03:26:10.130Z,30.22
2022-11-24T03:28:39.297Z,31.44
2022-11-24T03:31:09.649Z,31.99
2022-11-24T03:33:39.276Z,30.74
2022-11-24T03:36:09.508Z,30.42
2022-11-24T03:38:39.018Z,28.30
2022-11-24T03:41:10.249Z,27.24
2022-11-24T03:43:44.041Z,28.52
2022-11-24T03:46:14.325Z,29.80
2022-11-24T03:48:43.315Z,25.89
2022-11-24T03:51:12.838Z,25.79
2022-11-24T03:53:41.907Z,29.98
2022-11-24T03:56:11.221Z,31.71
2022-11-24T03:58:40.376Z,29.47
2022-11-24T04:01:09.516Z,30.98
2022-11-24T04:03:38.361Z,32.97
2022-11-24T04:06:07.610Z,32.56
2022-11-24T04:08:36.515Z,33.27
2022-11-24T04:11:05.694Z,32.41
2022-11-24T04:13:34.541Z,31.72
2022-11-24T04:16:08.485Z,30.23
2022-11-24T04:18:37.641Z,32.74
2022-11-24T04:21:06.845Z,34.41
2022-11-24T04:23:36.263Z,32.80
2022-11-24T04:26:05.109Z,32.91
2022-11-24T04:28:34.402Z,34.54
2022-11-24T04:31:07.307Z,35.02
2022-11-24T04:33:36.452Z,33.63
2022-11-24T04:36:05.538Z,33.76
2022-11-24T04:39:20.064Z,33.41
2022-11-24T04:41:23.762Z,32.81
2022-11-24T04:43:52.798Z,32.26
2022-11-24T04:46:22.035Z,33.89
2022-11-24T04:48:51.605Z,35.14
2022-11-24T04:51:20.772Z,33.12
2022-11-24T04:53:53.085Z,33.66
2022-11-24T04:56:23.257Z,36.00
2022-11-24T04:58:52.132Z,32.92
2022-11-24T05:01:21.222Z,32.19
2022-11-24T05:03:50.298Z,31.55
2022-11-24T05:06:20.055Z,32.59
2022-11-24T05:08:52.183Z,30.72
2022-11-24T05:11:21.377Z,30.87
2022-11-24T05:13:50.263Z,30.32
2022-11-24T05:16:19.739Z,28.85
2022-11-24T05:18:49.016Z,28.38
2022-11-24T05:21:18.226Z,28.27
2022-11-24T05:23:47.258Z,28.93
2022-11-24T05:26:16.465Z,27.92
2022-11-24T05:28:45.477Z,29.04
2022-11-24T05:31:14.647Z,28.29
2022-11-24T05:33:44.509Z,27.25
2022-11-24T05:36:33.462Z,27.29
2022-11-24T05:39:02.737Z,29.44
2022-11-24T05:41:31.530Z,30.42
2022-11-24T05:44:01.251Z,30.37
2022-11-24T05:46:30.106Z,29.88
2022-11-24T05:48:59.201Z,29.70
2022-11-24T05:51:29.255Z,32.13
2022-11-24T05:53:58.241Z,32.19
2022-11-24T05:56:27.400Z,33.29
2022-11-24T05:58:57.271Z,25.90
2022-11-24T06:01:26.182Z,33.69
2022-11-24T06:03:57.749Z,36.00
2022-11-24T06:06:26.988Z,33.12
2022-11-24T06:08:56.196Z,32.48
2022-11-24T06:11:25.227Z,33.27
2022-11-24T06:13:54.250Z,27.86
2022-11-24T06:16:23.809Z,29.88
2022-11-24T06:18:52.904Z,31.59
2022-11-24T06:21:22.391Z,28.93
2022-11-24T06:23:51.305Z,23.52
2022-11-24T06:26:20.720Z,22.80
2022-11-24T06:28:50.392Z,18.36
2022-11-24T06:31:19.668Z,22.91
2022-11-24T06:33:48.708Z,24.20
2022-11-24T06:36:18.102Z,19.33
2022-11-24T06:38:47.574Z,18.00
2022-11-24T06:41:17.863Z,18.04
2022-11-24T06:43:48.629Z,18.08
2022-11-24T06:46:17.965Z,18.85
2022-11-24T06:48:46.811Z,17.23
2022-11-24T06:51:15.714Z,18.31
2022-11-24T06:53:44.503Z,17.98
2022-11-24T06:56:16.973Z,20.95
2022-11-24T06:58:49.557Z,17.62
2022-11-24T07:01:22.004Z,18.61
2022-11-24T07:03:52.991Z,19.79
2022-11-24T07:06:23.585Z,19.85
2022-11-24T07:08:54.060Z,21.96
2022-11-24T07:11:25.853Z,25.14
2022-11-24T07:13:59.907Z,21.44
2022-11-24T07:16:30.662Z,23.74
2022-11-24T07:19:01.315Z,15.81
2022-11-24T07:21:31.786Z,21.71
2022-11-24T07:24:00.639Z,20.22
2022-11-24T07:26:29.689Z,19.83
2022-11-24T07:28:58.741Z,19.08
2022-11-24T07:31:27.899Z,19.54
2022-11-24T07:33:57.109Z,20.44
2022-11-24T07:36:26.613Z,16.99
2022-11-24T07:38:55.656Z,20.20
2022-11-24T07:41:24.825Z,19.18
2022-11-24T07:43:54.146Z,20.32
2022-11-24T07:46:23.338Z,19.65
2022-11-24T07:48:52.419Z,20.33
2022-11-24T07:51:21.768Z,17.43
2022-11-24T07:53:51.060Z,19.57
2022-11-24T07:56:20.576Z,22.66
2022-11-24T07:58:52.869Z,20.67
2022-11-24T08:01:22.750Z,21.83
2022-11-24T08:03:52.337Z,20.10
2022-11-24T08:06:26.120Z,20.99
2022-11-24T08:08:57.580Z,21.06
2022-11-24T08:11:27.393Z,22.16
2022-11-24T08:13:56.603Z,21.10
2022-11-24T08:16:26.319Z,22.44
2022-11-24T08:18:57.041Z,23.12
2022-11-24T08:21:26.903Z,23.88
2022-11-24T08:23:59.265Z,25.31
2022-11-24T08:26:29.201Z,21.44
2022-11-24T08:29:00.036Z,20.50
2022-11-24T08:31:34.634Z,21.87
2022-11-24T08:34:06.615Z,23.03
2022-11-24T08:36:36.408Z,20.73
2022-11-24T08:39:05.887Z,19.43
2022-11-24T08:41:35.269Z,19.61
2022-11-24T08:44:05.543Z,20.04
2022-11-24T08:46:34.664Z,20.40
2022-11-24T08:49:03.765Z,22.54
2022-11-24T08:51:33.005Z,20.52
2022-11-24T08:54:02.945Z,19.77
2022-11-24T08:56:34.715Z,23.94
2022-11-24T08:59:04.356Z,21.59
2022-11-24T09:01:34.380Z,20.14
2022-11-24T09:04:03.543Z,23.02
2022-11-24T09:06:32.680Z,21.32
2022-11-24T09:09:02.432Z,21.62
2022-11-24T09:11:32.073Z,21.37
2022-11-24T09:14:01.183Z,22.58
2022-11-24T09:16:30.994Z,23.66
2022-11-24T09:19:06.086Z,22.45
2022-11-24T09:21:38.798Z,20.68
2022-11-24T09:24:12.214Z,20.53
2022-11-24T09:26:46.132Z,21.20
2022-11-24T09:29:16.932Z,19.34
2022-11-24T09:31:46.371Z,18.57
2022-11-24T09:34:17.058Z,18.69
2022-11-24T09:36:46.364Z,22.30
2022-11-24T09:39:15.390Z,21.27
2022-11-24T09:42:04.065Z,21.14
2022-11-24T09:44:42.830Z,21.76
2022-11-24T09:47:56.400Z,21.53
2022-11-24T09:50:28.428Z,20.25
2022-11-24T09:53:34.746Z,18.29
2022-11-24T09:56:20.799Z,19.25
2022-11-24T09:58:55.712Z,20.71
2022-11-24T10:01:39.520Z,22.72
2022-11-24T10:04:41.946Z,21.79
2022-11-24T10:07:24.263Z,22.45
2022-11-24T10:09:56.210Z,20.75
2022-11-24T10:12:49.223Z,22.94
2022-11-24T10:15:27.407Z,22.31
2022-11-24T10:18:23.264Z,22.04
2022-11-24T10:21:19.668Z,18.22
2022-11-24T10:24:10.350Z,17.52
2022-11-24T10:26:42.486Z,16.31
2022-11-24T10:29:14.991Z,24.30
2022-11-24T10:31:47.132Z,24.58
2022-11-24T10:34:24.541Z,26.83
2022-11-24T10:37:27.075Z,24.28
2022-11-24T10:40:17.241Z,24.05
2022-11-24T10:42:56.488Z,24.46
2022-11-24T10:45:27.922Z,24.47
2022-11-24T10:47:59.860Z,25.32
2022-11-24T10:50:34.160Z,26.23
2022-11-24T10:53:21.717Z,26.92
2022-11-24T10:56:05.863Z,28.71
2022-11-24T10:58:39.999Z,30.13
2022-11-24T11:01:15.350Z,30.01
2022-11-24T11:04:02.677Z,31.00
2022-11-24T11:06:33.715Z,32.24
2022-11-24T11:09:09.459Z,33.17
2022-11-24T11:11:40.859Z,35.11
2022-11-24T11:14:14.141Z,35.21
2022-11-24T11:16:53.468Z,35.59
2022-11-24T11:19:50.020Z,35.91
2022-11-24T11:22:25.255Z,36.65
2022-11-24T11:25:12.882Z,36.93
2022-11-24T11:27:42.812Z,37.24
2022-11-24T11:36:18.029Z,38.59
2022-11-24T11:38:48.467Z,37.88
2022-11-24T11:41:31.634Z,38.46
2022-11-24T11:44:27.616Z,40.14
2022-11-24T11:47:00.707Z,41.14
2022-11-24T11:49:30.116Z,38.76
2022-11-24T11:52:36.240Z,42.46
2022-11-24T11:55:23.720Z,38.77
2022-11-24T11:58:09.293Z,38.04
2022-11-24T12:00:46.757Z,38.66
2022-11-24T12:03:34.416Z,38.24
2022-11-24T12:06:34.848Z,38.62
2022-11-24T12:09:35.225Z,36.34
2022-11-24T12:12:26.801Z,35.34
2022-11-24T12:15:22.378Z,35.72
2022-11-24T12:18:33.063Z,34.44
2022-11-24T12:21:28.811Z,33.45
2022-11-24T12:24:21.049Z,32.00
2022-11-24T12:27:05.503Z,32.91
2022-11-24T12:29:59.254Z,30.72
2022-11-24T12:32:58.799Z,30.05
2022-11-24T12:35:37.214Z,29.60
2022-11-24T12:38:15.010Z,32.52
2022-11-24T12:41:33.787Z,31.62
2022-11-24T12:43:58.747Z,31.45
2022-11-24T12:46:58.877Z,30.70
2022-11-24T12:49:46.042Z,31.36
2022-11-24T12:52:45.370Z,29.65
2022-11-24T12:55:25.000Z,29.64
2022-11-24T12:58:25.537Z,30.40
2022-11-24T13:01:47.824Z,29.50
2022-11-24T13:04:32.115Z,29.81
2022-11-24T13:17:58.387Z,28.61
2022-11-24T13:30:35.883Z,26.45
2022-11-24T13:36:48.650Z,27.94
2022-11-24T13:42:44.056Z,28.90
2022-11-24T13:58:44.134Z,33.37
2022-11-24T14:04:40.703Z,31.60
2022-11-24T14:10:39.154Z,28.36
2022-11-24T14:16:37.730Z,30.64
2022-11-24T14:27:51.825Z,36.45
2022-11-24T14:36:31.376Z,33.80
2022-11-24T14:42:30.524Z,31.33
2022-11-24T14:45:04.997Z,29.05
2022-11-24T14:47:40.245Z,28.80
2022-11-24T14:50:27.851Z,28.61
2022-11-24T14:52:59.163Z,27.15
2022-11-24T14:55:40.232Z,28.15
2022-11-24T14:58:41.834Z,26.70
2022-11-24T15:01:29.350Z,27.83
2022-11-24T15:04:32.862Z,27.46
2022-11-24T15:07:30.272Z,27.60
2022-11-24T15:10:05.116Z,28.38
2022-11-24T15:12:55.000Z,29.56
2022-11-24T15:15:37.276Z,29.98
2022-11-24T15:18:08.521Z,30.39
2022-11-24T15:20:48.012Z,29.24
2022-11-24T15:23:23.512Z,27.34
2022-11-24T15:26:18.956Z,27.54
2022-11-24T15:28:48.362Z,26.65
2022-11-24T15:31:17.311Z,27.02
2022-11-24T15:33:46.401Z,27.01
2022-11-24T15:36:17.819Z,26.83
2022-11-24T15:38:47.003Z,28.34
2022-11-24T15:41:27.129Z,28.18
2022-11-24T15:44:00.137Z,26.91
2022-11-24T15:46:31.750Z,27.32
2022-11-24T15:49:01.092Z,26.83
2022-11-24T15:51:29.964Z,27.97
2022-11-24T15:54:01.349Z,28.13
2022-11-24T15:56:35.451Z,27.75
2022-11-24T15:59:05.672Z,28.71
2022-11-24T16:01:35.459Z,28.55
2022-11-24T16:04:04.828Z,29.07
2022-11-24T16:06:33.969Z,27.18
2022-11-24T16:09:03.037Z,27.05
2022-11-24T16:11:32.151Z,26.62
2022-11-24T16:14:01.173Z,25.86
2022-11-24T16:16:30.529Z,25.94
2022-11-24T16:18:59.565Z,26.09
2022-11-24T16:21:28.542Z,27.40
2022-11-24T16:23:57.806Z,28.10
2022-11-24T16:26:26.694Z,27.04
2022-11-24T16:28:56.061Z,29.88
2022-11-24T16:31:25.313Z,30.73
2022-11-24T16:33:54.398Z,30.84
2022-11-24T16:36:24.086Z,33.56
2022-11-24T16:38:53.526Z,32.78
2022-11-24T16:41:22.807Z,32.85
2022-11-24T16:43:51.810Z,32.15
2022-11-24T16:46:23.240Z,31.76
2022-11-24T16:48:56.056Z,32.37
2022-11-24T16:51:31.398Z,31.72
2022-11-24T16:54:05.556Z,30.69
2022-11-24T16:56:35.420Z,30.96
2022-11-24T16:59:04.943Z,31.84
2022-11-24T17:01:34.829Z,31.73
2022-11-24T17:04:06.022Z,32.27
2022-11-24T17:06:38.864Z,30.97
2022-11-24T17:09:07.813Z,30.97
2022-11-24T17:11:36.857Z,30.88
2022-11-24T17:14:05.911Z,30.64
2022-11-24T17:16:35.841Z,30.43
2022-11-24T17:19:06.601Z,30.05
2022-11-24T17:21:36.459Z,30.30
2022-11-24T17:24:06.433Z,30.38
2022-11-24T17:26:36.501Z,30.59
2022-11-24T17:29:05.464Z,30.79
2022-11-24T17:31:38.352Z,30.99
2022-11-24T17:34:09.549Z,31.08
2022-11-24T17:36:39.090Z,31.48
2022-11-24T17:39:08.697Z,32.58
2022-11-24T17:41:38.710Z,32.96
2022-11-24T17:44:10.839Z,33.47
2022-11-24T17:46:40.132Z,34.00
2022-11-24T17:49:09.416Z,33.62
2022-11-24T17:51:38.387Z,33.24
2022-11-24T17:54:31.203Z,33.35
2022-11-24T17:56:56.569Z,32.89
2022-11-24T17:59:25.648Z,32.71
2022-11-24T18:01:56.240Z,33.03
2022-11-24T18:04:25.203Z,33.25
2022-11-24T18:06:54.300Z,33.54
2022-11-24T18:09:23.307Z,32.84
2022-11-24T18:11:53.193Z,33.07
2022-11-24T18:14:22.124Z,34.50
2022-11-24T18:16:51.460Z,35.12
2022-11-24T18:19:20.627Z,34.42
2022-11-24T18:21:49.709Z,34.67
2022-11-24T18:24:22.709Z,33.62
2022-11-24T18:26:53.223Z,33.47
2022-11-24T18:29:23.195Z,32.51
2022-11-24T18:31:52.229Z,33.13
2022-11-24T18:34:21.278Z,33.54
2022-11-24T18:36:53.082Z,32.67
2022-11-24T18:39:22.673Z,33.20
2022-11-24T18:41:51.601Z,33.41
2022-11-24T18:44:20.854Z,34.52
2022-11-24T18:46:50.574Z,33.19
2022-11-24T18:49:19.685Z,33.30
2022-11-24T18:51:48.482Z,32.24
2022-11-24T18:54:17.588Z,34.40
2022-11-24T18:56:47.138Z,34.26
2022-11-24T18:59:16.716Z,38.07
2022-11-24T19:01:47.265Z,35.75
2022-11-24T19:04:16.496Z,35.23
2022-11-24T19:06:45.736Z,34.70
2022-11-24T19:09:19.390Z,33.56
2022-11-24T19:11:49.088Z,33.89
2022-11-24T19:14:20.175Z,32.71
2022-11-24T19:16:49.362Z,33.00
2022-11-24T19:19:18.280Z,32.56
2022-11-24T19:21:47.590Z,33.54
2022-11-24T19:24:16.472Z,33.52
2022-11-24T19:26:46.298Z,33.12
2022-11-24T19:29:15.400Z,32.60
2022-11-24T19:31:44.846Z,31.42
2022-11-24T19:34:13.910Z,32.02
2022-11-24T19:36:44.406Z,31.87
2022-11-24T19:39:16.373Z,33.32
2022-11-24T19:41:45.670Z,30.91
2022-11-24T19:44:15.307Z,30.20
2022-11-24T19:46:44.420Z,29.21
2022-11-24T19:49:13.833Z,29.26
2022-11-24T19:51:42.993Z,29.50
2022-11-24T19:54:15.749Z,30.02
2022-11-24T19:56:45.014Z,29.71
2022-11-24T19:59:16.242Z,30.01
2022-11-24T20:01:45.402Z,30.45
2022-11-24T20:04:16.511Z,29.79
2022-11-24T20:06:48.390Z,29.79
2022-11-24T20:09:19.471Z,30.04
2022-11-24T20:11:49.740Z,29.20
2022-11-24T20:14:20.516Z,29.25
2022-11-24T20:16:49.692Z,29.50
2022-11-24T20:19:19.842Z,29.08
2022-11-24T20:21:50.960Z,29.09
2022-11-24T20:24:23.131Z,28.74
2022-11-24T20:26:57.604Z,28.97
2022-11-24T20:29:29.215Z,29.00
2022-11-24T20:31:59.723Z,28.45
2022-11-24T20:34:29.427Z,28.80
2022-11-24T20:36:58.288Z,27.95
2022-11-24T20:39:29.548Z,27.66
2022-11-24T20:41:59.551Z,29.56
2022-11-24T20:44:31.139Z,28.43
2022-11-24T20:47:01.545Z,30.08
2022-11-24T20:49:30.731Z,29.37
2022-11-24T20:52:00.496Z,28.50
2022-11-24T20:54:29.448Z,29.84
2022-11-24T20:56:58.424Z,29.84
2022-11-24T20:59:27.442Z,29.49
2022-11-24T21:01:56.741Z,29.09
2022-11-24T21:04:27.599Z,29.78
2022-11-24T21:06:57.048Z,31.99
2022-11-24T21:09:28.226Z,35.90
2022-11-24T21:11:57.597Z,35.83
2022-11-24T21:14:30.033Z,36.22
2022-11-24T21:17:01.710Z,37.04
2022-11-24T21:19:30.734Z,34.63
2022-11-24T21:21:59.813Z,34.55
2022-11-24T21:24:32.046Z,34.85
2022-11-24T21:27:01.131Z,35.83
2022-11-24T21:29:29.958Z,35.44
2022-11-24T21:31:59.700Z,34.53
2022-11-24T21:34:28.754Z,34.70
2022-11-24T21:36:57.857Z,35.26
2022-11-24T21:39:26.809Z,34.99
2022-11-24T21:41:56.047Z,35.14
2022-11-24T21:44:24.938Z,34.12
2022-11-24T21:46:56.111Z,34.74
2022-11-24T21:49:25.355Z,35.88
2022-11-24T21:51:56.506Z,34.12
2022-11-24T21:54:25.698Z,33.64
2022-11-24T21:56:55.340Z,32.07
2022-11-24T21:59:24.520Z,33.52
2022-11-24T22:01:53.539Z,35.44
2022-11-24T22:04:22.792Z,34.13
2022-11-24T22:06:53.679Z,34.31
2022-11-24T22:09:23.020Z,33.87
2022-11-24T22:11:53.688Z,33.68
2022-11-24T22:14:23.419Z,32.96
2022-11-24T22:16:52.744Z,34.59
2022-11-24T22:19:21.843Z,33.51
2022-11-24T22:21:51.288Z,32.73
2022-11-24T22:24:25.785Z,33.03
2022-11-24T22:26:56.244Z,33.04
2022-11-24T22:29:25.348Z,33.68
2022-11-24T22:31:54.586Z,33.91
2022-11-24T22:34:23.649Z,33.39
2022-11-24T22:36:52.734Z,32.87
2022-11-24T22:39:21.587Z,33.71
2022-11-24T22:41:50.872Z,33.45
2022-11-24T22:44:19.778Z,34.19
2022-11-24T22:46:49.575Z,33.93
2022-11-24T22:49:18.574Z,31.78
2022-11-24T22:51:47.707Z,30.45
2022-11-24T22:54:16.647Z,30.66
2022-11-24T22:56:45.941Z,30.51
2022-11-24T22:59:14.870Z,30.15
2022-11-24T23:01:44.082Z,30.22
2022-11-24T23:04:13.058Z,29.73
2022-11-24T23:06:42.239Z,29.79
2022-11-24T23:09:13.380Z,29.77
2022-11-24T23:11:42.639Z,29.01
2022-11-24T23:14:16.829Z,28.50
2022-11-24T23:16:47.559Z,28.85
2022-11-24T23:19:16.451Z,29.35
2022-11-24T23:21:45.621Z,28.93
2022-11-24T23:24:14.588Z,30.07
2022-11-24T23:26:44.219Z,30.79
2022-11-24T23:29:13.271Z,29.97
2022-11-24T23:31:42.457Z,30.72
2022-11-24T23:34:11.577Z,30.61
2022-11-24T23:36:41.403Z,32.07
2022-11-24T23:39:13.572Z,30.46
2022-11-24T23:41:42.993Z,32.77
2022-11-24T23:44:12.237Z,32.40
2022-11-24T23:46:41.436Z,32.57
2022-11-24T23:49:10.523Z,31.71
2022-11-24T23:51:43.117Z,31.16
2022-11-24T23:54:12.472Z,31.02
2022-11-24T23:56:41.442Z,33.52
2022-11-24T23:59:12.701Z,32.28
